Maersk Bali — 9V7499 — position and weather

sailwx.info

Track history (hours):
 
Tides and Currents Weather Stations Pressure Air Temp Water Temp Dewpoint Dewpoint Depression Visibility Wind Speed Wind Dir Waves Ship Positions

Maersk Bali

Last reported at 2016-Jul-17 06:24 UTC. Time now 2016-Jul-23 09:14 UTC.
Position N 34°35' W 024°31'.

Length 223 m; draft 10.6 m.

Type: Cargo ship. MMSI: 563102000.

Date/timePositionNaut miles runAvg speedWind from/ knotsBaromVisibWave heightAir tempDewpointWater temp
2016-Jul-17 06:24N 34°35' W 024°31'14011.8
2016-Jul-16 18:33N 34°57' W 021°43'1211.7
2016-Jul-16 17:33N 34°59' W 021°29'1211.6
2016-Jul-16 16:33N 35°01' W 021°15'1211.4
2016-Jul-16 15:33N 35°03' W 021°01'1111.5
2016-Jul-16 14:33N 35°05' W 020°47'1211.6
2016-Jul-16 13:33N 35°07' W 020°33'1111.4
2016-Jul-16 12:33N 35°09' W 020°20'1111.4
2016-Jul-16 11:33N 35°11' W 020°06'1111.2
2016-Jul-16 10:33N 35°12' W 019°52'1111.2
2016-Jul-16 09:33N 35°14' W 019°39'1312.4
2016-Jul-16 08:32N 35°15' W 019°23'1111.2
2016-Jul-16 07:34N 35°16' W 019°10'1211.8
2016-Jul-16 06:33N 35°17' W 018°56'2412.0
2016-Jul-16 04:33N 35°20' W 018°26'1212.3
2016-Jul-16 03:33N 35°22' W 018°11'1212.2
2016-Jul-16 02:33N 35°23' W 017°56'1212.4
2016-Jul-16 01:33N 35°24' W 017°41'1212.1
2016-Jul-16 00:33N 35°26' W 017°27'1212.1
2016-Jul-15 23:33N 35°27' W 017°12'1212.2
2016-Jul-15 22:33N 35°29' W 016°57'1212.0
2016-Jul-15 21:33N 35°30' W 016°42'2912.3
2016-Jul-15 19:13N 35°33' W 016°07'812.4
2016-Jul-15 18:32N 35°34' W 015°57'1212.4
2016-Jul-15 17:33N 35°36' W 015°42'1312.4
2016-Jul-15 16:32N 35°37' W 015°27'1212.2
2016-Jul-15 15:32N 35°39' W 015°12'1312.2
2016-Jul-15 14:30N 35°40' W 014°56'1212.1
2016-Jul-15 13:32N 35°40' W 014°42'1212.1
2016-Jul-15 12:33N 35°41' W 014°27'1212.1
2016-Jul-15 11:33N 35°42' W 014°13'1212.0
2016-Jul-15 10:33N 35°43' W 013°58'1211.9
2016-Jul-15 09:33N 35°43' W 013°43'1211.9
2016-Jul-15 08:33N 35°44' W 013°29'1212.0
2016-Jul-15 07:33N 35°45' W 013°14'1212.1
2016-Jul-15 06:33N 35°45' W 012°59'1212.1
2016-Jul-15 05:33N 35°46' W 012°44'1211.8
2016-Jul-15 04:33N 35°47' W 012°29'4811.7
2016-Jul-15 00:23N 35°50' W 011°30'1011.9
2016-Jul-14 23:32N 35°51' W 011°17'2811.9
2016-Jul-14 21:11N 35°53' W 010°43'812.1
2016-Jul-14 20:33N 35°53' W 010°33'24112.0
2016-Jul-14 00:28N 35°58' W 005°35'9 9.9
2016-Jul-13 23:33N 36°01' W 005°25'7 6.9
2016-Jul-13 22:33N 36°08' W 005°26'0 0.1
2016-Jul-13 21:28N 36°08' W 005°26'0 0.0
2016-Jul-13 20:31N 36°08' W 005°26'0 0.0
2016-Jul-13 19:31N 36°08' W 005°26'0 0.0
2016-Jul-13 18:31N 36°08' W 005°26'0 0.0
2016-Jul-13 17:31N 36°08' W 005°26'0 0.0
2016-Jul-13 16:31N 36°08' W 005°26'0 0.0
2016-Jul-13 15:31N 36°08' W 005°26'0 0.0
2016-Jul-13 14:28N 36°08' W 005°26'0 0.0
2016-Jul-13 13:31N 36°08' W 005°26'0 0.0
2016-Jul-13 12:28N 36°08' W 005°26'0 0.0
2016-Jul-13 11:16N 36°08' W 005°26'0 0.0
2016-Jul-13 10:22N 36°08' W 005°26'0 0.0
2016-Jul-13 09:31N 36°08' W 005°26'0 0.0
2016-Jul-13 08:31N 36°08' W 005°26'0 0.0
2016-Jul-13 07:25N 36°08' W 005°26'0 0.0
2016-Jul-13 06:31N 36°08' W 005°26'0 0.0
2016-Jul-13 05:31N 36°08' W 005°26'0 0.0
2016-Jul-13 04:31N 36°08' W 005°26'0 0.0
2016-Jul-13 03:31N 36°08' W 005°26'0 0.0
2016-Jul-13 02:31N 36°08' W 005°26'0 0.0
2016-Jul-13 01:31N 36°08' W 005°26'0 0.0
2016-Jul-13 00:31N 36°08' W 005°26'0 0.0
2016-Jul-12 23:31N 36°08' W 005°26'0 0.0
2016-Jul-12 22:28N 36°08' W 005°26'0 0.0
2016-Jul-12 21:28N 36°08' W 005°26'0 0.0
2016-Jul-12 20:31N 36°08' W 005°26'0 0.0
2016-Jul-12 19:31N 36°08' W 005°26'0 0.0
2016-Jul-12 18:31N 36°08' W 005°26'0 0.0
2016-Jul-12 17:31N 36°08' W 005°26'0 0.0
2016-Jul-12 16:28N 36°08' W 005°26'0 0.0
2016-Jul-12 15:22N 36°08' W 005°26'0 0.0
2016-Jul-12 14:31N 36°08' W 005°26'0 0.0
2016-Jul-12 13:25N 36°08' W 005°26'0 0.0
2016-Jul-12 11:31N 36°08' W 005°26'0 0.0
2016-Jul-12 10:31N 36°08' W 005°26'0 0.0
2016-Jul-12 09:33N 36°08' W 005°26'3 2.9
2016-Jul-12 08:33N 36°07' W 005°23'8 7.8
2016-Jul-12 07:33N 36°05' W 005°13'1 0.7
2016-Jul-12 06:33N 36°05' W 005°14'1 1.2
2016-Jul-12 05:33N 36°05' W 005°16'2 2.2
2016-Jul-12 04:33N 36°05' W 005°18'4 3.7
2016-Jul-12 03:33N 36°06' W 005°14'20512.8
2016-Jul-11 11:31N 36°36' W 001°01'1110.9
2016-Jul-11 10:33N 36°38' W 000°48'1110.9
2016-Jul-11 09:32N 36°39' W 000°35'1110.8
2016-Jul-11 08:29N 36°41' W 000°21'1010.8
2016-Jul-11 07:33N 36°43' W 000°09'1211.5
2016-Jul-11 06:33N 36°46' E 000°05'2411.9
2016-Jul-11 04:33N 36°51' E 000°34'1211.7
2016-Jul-11 03:33N 36°54' E 000°49'1111.3
2016-Jul-11 02:33N 36°56' E 001°03'1211.5
2016-Jul-11 01:33N 36°57' E 001°17'1211.5
2016-Jul-11 00:33N 36°58' E 001°31'1111.4
2016-Jul-10 23:33N 36°60' E 001°45'1111.4
2016-Jul-10 22:33N 37°01' E 001°59'1111.4
2016-Jul-10 21:33N 37°03' E 002°14'1111.1
2016-Jul-10 20:33N 37°05' E 002°27'1111.2
2016-Jul-10 19:33N 37°07' E 002°41'1110.9
2016-Jul-10 18:33N 37°09' E 002°55'1111.2
2016-Jul-10 17:32N 37°11' E 003°09'1111.6
2016-Jul-10 16:33N 37°12' E 003°23'1211.4
2016-Jul-10 15:30N 37°13' E 003°38'1111.0
2016-Jul-10 14:33N 37°14' E 003°51'1211.9
2016-Jul-10 13:32N 37°15' E 004°06'1211.9
2016-Jul-10 12:33N 37°17' E 004°21'1211.1
2016-Jul-10 11:27N 37°18' E 004°36'1010.9
2016-Jul-10 10:32N 37°19' E 004°49'1211.1
2016-Jul-10 09:28N 37°19' E 005°04'1011.3
2016-Jul-10 08:32N 37°20' E 005°17'1211.7
2016-Jul-10 07:32N 37°21' E 005°31'1312.6
2016-Jul-10 06:32N 37°23' E 005°47'1312.4
2016-Jul-10 05:29N 37°24' E 006°04'3711.7
2016-Jul-10 02:20N 37°28' E 006°50'1311.5
2016-Jul-10 01:11N 37°29' E 007°06'711.2
2016-Jul-10 00:32N 37°30' E 007°15'5911.7
2016-Jul-09 19:32N 37°35' E 008°29'1212.1
2016-Jul-09 18:33N 37°36' E 008°44'1211.6
2016-Jul-09 17:33N 37°37' E 008°59'1111.3
2016-Jul-09 16:32N 37°37' E 009°13'1111.4
2016-Jul-09 15:33N 37°38' E 009°27'1110.9
2016-Jul-09 14:33N 37°38' E 009°41'1110.9
2016-Jul-09 13:33N 37°39' E 009°55'1111.1
2016-Jul-09 12:33N 37°39' E 010°09'1111.3
2016-Jul-09 11:33N 37°38' E 010°23'1211.5
2016-Jul-09 10:33N 37°35' E 010°37'1111.4
2016-Jul-09 09:33N 37°32' E 010°51'1211.8
2016-Jul-09 08:33N 37°29' E 011°05'2711.4
2016-Jul-09 06:13N 37°17' E 011°35'1810.8
2016-Jul-09 04:33N 37°08' E 011°54'1311.1
2016-Jul-09 03:25N 37°01' E 012°08'1010.8
2016-Jul-09 02:30N 36°59' E 012°20'1010.9
2016-Jul-09 01:33N 36°55' E 012°32'1111.3
2016-Jul-09 00:33N 36°52' E 012°46'1111.2
2016-Jul-08 23:33N 36°49' E 012°59'1110.8
2016-Jul-08 22:33N 36°46' E 013°12'1010.4
2016-Jul-08 21:33N 36°43' E 013°24'1110.7
2016-Jul-08 20:33N 36°40' E 013°37'1110.9
2016-Jul-08 19:33N 36°37' E 013°50'1110.7
2016-Jul-08 18:33N 36°34' E 014°03'1110.8
2016-Jul-08 17:33N 36°31' E 014°16'1110.7
2016-Jul-08 16:33N 36°27' E 014°29'1110.9
2016-Jul-08 15:33N 36°24' E 014°42'1111.3
2016-Jul-08 14:33N 36°21' E 014°55'1111.2
2016-Jul-08 13:33N 36°20' E 015°09'2411.5
2016-Jul-08 11:29N 36°20' E 015°38'4012.2
2016-Jul-08 08:12N 36°20' E 016°28'  
Track history (hours):
 
Tides and Currents Weather Stations Pressure Air Temp Water Temp Dewpoint Dewpoint Depression Visibility Wind Speed Wind Dir Waves Ship Positions

Maersk Bali

Last reported at 2016-Jul-17 06:24 UTC. Time now 2016-Jul-23 09:14 UTC.
Position N 34°35' W 024°31'.

Length 223 m; draft 10.6 m.

Type: Cargo ship. MMSI: 563102000.

Date/timePositionNaut miles runAvg speedWind from/ knotsBaromVisibWave heightAir tempDewpointWater temp
2016-Jul-17 06:24N 34°35' W 024°31'14011.8
2016-Jul-16 18:33N 34°57' W 021°43'1211.7
2016-Jul-16 17:33N 34°59' W 021°29'1211.6
2016-Jul-16 16:33N 35°01' W 021°15'1211.4
2016-Jul-16 15:33N 35°03' W 021°01'1111.5
2016-Jul-16 14:33N 35°05' W 020°47'1211.6
2016-Jul-16 13:33N 35°07' W 020°33'1111.4
2016-Jul-16 12:33N 35°09' W 020°20'1111.4
2016-Jul-16 11:33N 35°11' W 020°06'1111.2
2016-Jul-16 10:33N 35°12' W 019°52'1111.2
2016-Jul-16 09:33N 35°14' W 019°39'1312.4
2016-Jul-16 08:32N 35°15' W 019°23'1111.2
2016-Jul-16 07:34N 35°16' W 019°10'1211.8
2016-Jul-16 06:33N 35°17' W 018°56'2412.0
2016-Jul-16 04:33N 35°20' W 018°26'1212.3
2016-Jul-16 03:33N 35°22' W 018°11'1212.2
2016-Jul-16 02:33N 35°23' W 017°56'1212.4
2016-Jul-16 01:33N 35°24' W 017°41'1212.1
2016-Jul-16 00:33N 35°26' W 017°27'1212.1
2016-Jul-15 23:33N 35°27' W 017°12'1212.2
2016-Jul-15 22:33N 35°29' W 016°57'1212.0
2016-Jul-15 21:33N 35°30' W 016°42'2912.3
2016-Jul-15 19:13N 35°33' W 016°07'812.4
2016-Jul-15 18:32N 35°34' W 015°57'1212.4
2016-Jul-15 17:33N 35°36' W 015°42'1312.4
2016-Jul-15 16:32N 35°37' W 015°27'1212.2
2016-Jul-15 15:32N 35°39' W 015°12'1312.2
2016-Jul-15 14:30N 35°40' W 014°56'1212.1
2016-Jul-15 13:32N 35°40' W 014°42'1212.1
2016-Jul-15 12:33N 35°41' W 014°27'1212.1
2016-Jul-15 11:33N 35°42' W 014°13'1212.0
2016-Jul-15 10:33N 35°43' W 013°58'1211.9
2016-Jul-15 09:33N 35°43' W 013°43'1211.9
2016-Jul-15 08:33N 35°44' W 013°29'1212.0
2016-Jul-15 07:33N 35°45' W 013°14'1212.1
2016-Jul-15 06:33N 35°45' W 012°59'1212.1
2016-Jul-15 05:33N 35°46' W 012°44'1211.8
2016-Jul-15 04:33N 35°47' W 012°29'4811.7
2016-Jul-15 00:23N 35°50' W 011°30'1011.9
2016-Jul-14 23:32N 35°51' W 011°17'2811.9
2016-Jul-14 21:11N 35°53' W 010°43'812.1
2016-Jul-14 20:33N 35°53' W 010°33'24112.0
2016-Jul-14 00:28N 35°58' W 005°35'9 9.9
2016-Jul-13 23:33N 36°01' W 005°25'7 6.9
2016-Jul-13 22:33N 36°08' W 005°26'0 0.1
2016-Jul-13 21:28N 36°08' W 005°26'0 0.0
2016-Jul-13 20:31N 36°08' W 005°26'0 0.0
2016-Jul-13 19:31N 36°08' W 005°26'0 0.0
2016-Jul-13 18:31N 36°08' W 005°26'0 0.0
2016-Jul-13 17:31N 36°08' W 005°26'0 0.0
2016-Jul-13 16:31N 36°08' W 005°26'0 0.0
2016-Jul-13 15:31N 36°08' W 005°26'0 0.0
2016-Jul-13 14:28N 36°08' W 005°26'0 0.0
2016-Jul-13 13:31N 36°08' W 005°26'0 0.0
2016-Jul-13 12:28N 36°08' W 005°26'0 0.0
2016-Jul-13 11:16N 36°08' W 005°26'0 0.0
2016-Jul-13 10:22N 36°08' W 005°26'0 0.0
2016-Jul-13 09:31N 36°08' W 005°26'0 0.0
2016-Jul-13 08:31N 36°08' W 005°26'0 0.0
2016-Jul-13 07:25N 36°08' W 005°26'0 0.0
2016-Jul-13 06:31N 36°08' W 005°26'0 0.0
2016-Jul-13 05:31N 36°08' W 005°26'0 0.0
2016-Jul-13 04:31N 36°08' W 005°26'0 0.0
2016-Jul-13 03:31N 36°08' W 005°26'0 0.0
2016-Jul-13 02:31N 36°08' W 005°26'0 0.0
2016-Jul-13 01:31N 36°08' W 005°26'0 0.0
2016-Jul-13 00:31N 36°08' W 005°26'0 0.0
2016-Jul-12 23:31N 36°08' W 005°26'0 0.0
2016-Jul-12 22:28N 36°08' W 005°26'0 0.0
2016-Jul-12 21:28N 36°08' W 005°26'0 0.0
2016-Jul-12 20:31N 36°08' W 005°26'0 0.0
2016-Jul-12 19:31N 36°08' W 005°26'0 0.0
2016-Jul-12 18:31N 36°08' W 005°26'0 0.0
2016-Jul-12 17:31N 36°08' W 005°26'0 0.0
2016-Jul-12 16:28N 36°08' W 005°26'0 0.0
2016-Jul-12 15:22N 36°08' W 005°26'0 0.0
2016-Jul-12 14:31N 36°08' W 005°26'0 0.0
2016-Jul-12 13:25N 36°08' W 005°26'0 0.0
2016-Jul-12 11:31N 36°08' W 005°26'0 0.0
2016-Jul-12 10:31N 36°08' W 005°26'0 0.0
2016-Jul-12 09:33N 36°08' W 005°26'3 2.9
2016-Jul-12 08:33N 36°07' W 005°23'8 7.8
2016-Jul-12 07:33N 36°05' W 005°13'1 0.7
2016-Jul-12 06:33N 36°05' W 005°14'1 1.2
2016-Jul-12 05:33N 36°05' W 005°16'2 2.2
2016-Jul-12 04:33N 36°05' W 005°18'4 3.7
2016-Jul-12 03:33N 36°06' W 005°14'20512.8
2016-Jul-11 11:31N 36°36' W 001°01'1110.9
2016-Jul-11 10:33N 36°38' W 000°48'1110.9
2016-Jul-11 09:32N 36°39' W 000°35'1110.8
2016-Jul-11 08:29N 36°41' W 000°21'1010.8
2016-Jul-11 07:33N 36°43' W 000°09'1211.5
2016-Jul-11 06:33N 36°46' E 000°05'2411.9
2016-Jul-11 04:33N 36°51' E 000°34'1211.7
2016-Jul-11 03:33N 36°54' E 000°49'1111.3
2016-Jul-11 02:33N 36°56' E 001°03'1211.5
2016-Jul-11 01:33N 36°57' E 001°17'1211.5
2016-Jul-11 00:33N 36°58' E 001°31'1111.4
2016-Jul-10 23:33N 36°60' E 001°45'1111.4
2016-Jul-10 22:33N 37°01' E 001°59'1111.4
2016-Jul-10 21:33N 37°03' E 002°14'1111.1
2016-Jul-10 20:33N 37°05' E 002°27'1111.2
2016-Jul-10 19:33N 37°07' E 002°41'1110.9
2016-Jul-10 18:33N 37°09' E 002°55'1111.2
2016-Jul-10 17:32N 37°11' E 003°09'1111.6
2016-Jul-10 16:33N 37°12' E 003°23'1211.4
2016-Jul-10 15:30N 37°13' E 003°38'1111.0
2016-Jul-10 14:33N 37°14' E 003°51'1211.9
2016-Jul-10 13:32N 37°15' E 004°06'1211.9
2016-Jul-10 12:33N 37°17' E 004°21'1211.1
2016-Jul-10 11:27N 37°18' E 004°36'1010.9
2016-Jul-10 10:32N 37°19' E 004°49'1211.1
2016-Jul-10 09:28N 37°19' E 005°04'1011.3
2016-Jul-10 08:32N 37°20' E 005°17'1211.7
2016-Jul-10 07:32N 37°21' E 005°31'1312.6
2016-Jul-10 06:32N 37°23' E 005°47'1312.4
2016-Jul-10 05:29N 37°24' E 006°04'3711.7
2016-Jul-10 02:20N 37°28' E 006°50'1311.5
2016-Jul-10 01:11N 37°29' E 007°06'711.2
2016-Jul-10 00:32N 37°30' E 007°15'5911.7
2016-Jul-09 19:32N 37°35' E 008°29'1212.1
2016-Jul-09 18:33N 37°36' E 008°44'1211.6
2016-Jul-09 17:33N 37°37' E 008°59'1111.3
2016-Jul-09 16:32N 37°37' E 009°13'1111.4
2016-Jul-09 15:33N 37°38' E 009°27'1110.9
2016-Jul-09 14:33N 37°38' E 009°41'1110.9
2016-Jul-09 13:33N 37°39' E 009°55'1111.1
2016-Jul-09 12:33N 37°39' E 010°09'1111.3
2016-Jul-09 11:33N 37°38' E 010°23'1211.5
2016-Jul-09 10:33N 37°35' E 010°37'1111.4
2016-Jul-09 09:33N 37°32' E 010°51'1211.8
2016-Jul-09 08:33N 37°29' E 011°05'2711.4
2016-Jul-09 06:13N 37°17' E 011°35'1810.8
2016-Jul-09 04:33N 37°08' E 011°54'1311.1
2016-Jul-09 03:25N 37°01' E 012°08'1010.8
2016-Jul-09 02:30N 36°59' E 012°20'1010.9
2016-Jul-09 01:33N 36°55' E 012°32'1111.3
2016-Jul-09 00:33N 36°52' E 012°46'1111.2
2016-Jul-08 23:33N 36°49' E 012°59'1110.8
2016-Jul-08 22:33N 36°46' E 013°12'1010.4
2016-Jul-08 21:33N 36°43' E 013°24'1110.7
2016-Jul-08 20:33N 36°40' E 013°37'1110.9
2016-Jul-08 19:33N 36°37' E 013°50'1110.7
2016-Jul-08 18:33N 36°34' E 014°03'1110.8
2016-Jul-08 17:33N 36°31' E 014°16'1110.7
2016-Jul-08 16:33N 36°27' E 014°29'1110.9
2016-Jul-08 15:33N 36°24' E 014°42'1111.3
2016-Jul-08 14:33N 36°21' E 014°55'1111.2
2016-Jul-08 13:33N 36°20' E 015°09'2411.5
2016-Jul-08 11:29N 36°20' E 015°38'4012.2
2016-Jul-08 08:12N 36°20' E 016°28'  

Dump ship's entire track history